Friday, September 21, 2018, 9:27 PM EDT
Back to Local

KPNE, N.e. Philadelphia Airport

Location: Philadelphia, PA, United States Lat: 40.083
Local Time: 9:27 PM EDT ( 1:27 GMT) Lon: -75.017
Time Zone: US/Eastern Elev: 121 ft

Show me the last for .
Show Decoded

2018-09-21 20:54 METAR KPNE 220054Z 21005KT 10SM OVC033 24/19 A3004 RMK AO2 SLP172 T02390189 =
2018-09-21 19:54 METAR KPNE 212354Z VRB06KT 10SM OVC032 24/19 A3003 RMK AO2 SLP166 T02390189
                 10261 20239 56022 =
2018-09-21 18:54 METAR KPNE 212254Z 20008KT 10SM OVC030 24/19 A3005 RMK AO2 SLP174 T02440189 =
2018-09-21 18:14 METAR KPNE 212214Z 19007G15KT 160V220 10SM OVC030 24/19 A3006 RMK AO2 T02440189
                 =
2018-09-21 17:54 METAR KPNE 212154Z 19007KT 170V230 10SM BKN028 OVC037 25/19 A3006 RMK AO2 SLP179
                 T02500189 =
2018-09-21 16:54 METAR KPNE 212054Z 20007G15KT 170V230 10SM OVC028 25/18 A3009 RMK AO2 SLP188
                 T02500183 56013 =
2018-09-21 16:52 METAR KPNE 212052Z 20010G15KT 10SM OVC028 25/18 A3009 RMK AO2 =
2018-09-21 15:54 METAR KPNE 211954Z 22009G15KT 10SM OVC031 25/18 A3011 RMK AO2 SLP196 T02500178 =
2018-09-21 14:54 METAR KPNE 211854Z 21006KT 10SM FEW033 OVC045 26/18 A3013 RMK AO2 SLP201
                 T02560178 =
2018-09-21 14:03 METAR KPNE 211803Z 19009KT 150V220 10SM SCT027 BKN034 OVC050 25/18 A3016 RMK AO2
                 T02500178 =
2018-09-21 13:54 METAR KPNE 211754Z VRB05KT 10SM BKN027 OVC034 25/18 A3016 RMK AO2 SLP211
                 T02500183 10250 20200 58026 =
2018-09-21 12:54 METAR KPNE 211654Z VRB03KT 10SM OVC023 24/18 A3019 RMK AO2 SLP222 T02390178 =
2018-09-21 12:36 METAR KPNE 211636Z VRB05KT 10SM BKN023 OVC043 23/17 A3020 RMK AO2 T02330172 =
2018-09-21 11:54 METAR KPNE 211554Z VRB04KT 10SM SCT025 OVC040 23/18 A3021 RMK AO2 SLP231
                 T02330178 =
2018-09-21 10:54 METAR KPNE 211454Z 17003KT 10SM FEW022 OVC042 22/17 A3024 RMK AO2 SLP238
                 T02220172 56012 =
2018-09-21 09:54 METAR KPNE 211354Z 16004KT 10SM OVC040 22/17 A3025 RMK AO2 SLP242 T02170167 =
2018-09-21 08:54 METAR KPNE 211254Z VRB04KT 10SM OVC041 21/17 A3026 RMK AO2 SLP245 T02060167 =
2018-09-21 07:54 METAR KPNE 211154Z 00000KT 10SM OVC039 20/17 A3027 RMK AO2 SLP250 T02000167
                 10200 20194 51006 =
2018-09-21 06:54 METAR KPNE 211054Z 17003KT 10SM SCT023 OVC039 20/16 A3027 RMK AO2 SLP249
                 T02000161 =
2018-09-21 05:54 METAR KPNE 210954Z AUTO 00000KT 10SM OVC045 20/16 A3026 RMK AO2 SLP247 T02000161
                 =
2018-09-21 04:54 METAR KPNE 210854Z AUTO 00000KT 10SM OVC038 20/17 A3025 RMK AO2 SLP244 T02000167
                 55002 =
2018-09-21 03:54 METAR KPNE 210754Z AUTO 14003KT 10SM BKN035 BKN042 OVC065 20/16 A3024 RMK AO2
                 SLP239 T02000161 =
2018-09-21 02:54 METAR KPNE 210654Z AUTO 00000KT 10SM BKN035 OVC042 20/16 A3025 RMK AO2 SLP243
                 T02000161 =
2018-09-21 01:54 METAR KPNE 210554Z AUTO 15003KT 10SM FEW033 OVC041 20/16 A3026 RMK AO2 SLP246
                 T02000156 10211 20200 58003 =
2018-09-21 00:54 METAR KPNE 210454Z AUTO 13004KT 10SM BKN033 BKN043 OVC060 20/16 A3027 RMK AO2
                 SLP248 T02000156 402330200 =
2018-09-20 23:54 METAR KPNE 210354Z AUTO 00000KT 10SM BKN032 OVC050 20/16 A3027 RMK AO2 SLP248
                 T02000156 =
2018-09-20 22:54 METAR KPNE 210254Z AUTO 14004KT 10SM OVC049 20/16 A3027 RMK AO2 SLP249 T02000156
                 53009 =
2018-09-20 21:54 METAR KPNE 210154Z 14005KT 10SM OVC031 21/16 A3026 RMK AO2 SLP247 T02060156 =

Support USWX by starting your Amazon purchase here.